sensor_id;sensor_type;location;lat;lon;timestamp;pressure;altitude;pressure_sealevel;temperature;humidity
73671;BME280;61968;48.178;11.566;2022-07-10T00:01:38;96273.34;;;19.65;34.44
73671;BME280;61968;48.178;11.566;2022-07-10T00:04:05;96268.03;;;19.60;34.41
73671;BME280;61968;48.178;11.566;2022-07-10T00:06:31;96267.72;;;19.61;34.16
73671;BME280;61968;48.178;11.566;2022-07-10T00:08:58;96276.47;;;19.12;35.04
73671;BME280;61968;48.178;11.566;2022-07-10T00:11:25;96271.09;;;19.02;35.52
73671;BME280;61968;48.178;11.566;2022-07-10T00:13:53;96266.50;;;19.23;35.20
73671;BME280;61968;48.178;11.566;2022-07-10T00:16:19;96269.94;;;19.39;35.06
73671;BME280;61968;48.178;11.566;2022-07-10T00:18:45;96273.44;;;19.34;35.58
73671;BME280;61968;48.178;11.566;2022-07-10T00:21:12;96286.84;;;19.39;35.08
73671;BME280;61968;48.178;11.566;2022-07-10T00:23:38;96272.88;;;19.53;35.32
73671;BME280;61968;48.178;11.566;2022-07-10T00:26:05;96283.28;;;19.59;35.33
73671;BME280;61968;48.178;11.566;2022-07-10T00:28:31;96290.56;;;19.43;36.14
73671;BME280;61968;48.178;11.566;2022-07-10T00:30:59;96303.97;;;19.43;36.19
73671;BME280;61968;48.178;11.566;2022-07-10T00:33:26;96306.13;;;19.52;35.97
73671;BME280;61968;48.178;11.566;2022-07-10T00:35:53;96305.59;;;19.55;36.39
73671;BME280;61968;48.178;11.566;2022-07-10T00:38:20;96310.69;;;19.46;36.22
73671;BME280;61968;48.178;11.566;2022-07-10T00:40:46;96314.44;;;19.55;36.36
73671;BME280;61968;48.178;11.566;2022-07-10T00:43:12;96317.13;;;19.45;36.65
73671;BME280;61968;48.178;11.566;2022-07-10T00:45:39;96314.19;;;19.52;36.91
73671;BME280;61968;48.178;11.566;2022-07-10T00:48:07;96313.63;;;19.49;36.98
73671;BME280;61968;48.178;11.566;2022-07-10T00:50:34;96315.25;;;19.40;36.89
73671;BME280;61968;48.178;11.566;2022-07-10T00:53:01;96305.63;;;19.29;37.42
73671;BME280;61968;48.178;11.566;2022-07-10T00:55:28;96287.41;;;19.26;37.45
73671;BME280;61968;48.178;11.566;2022-07-10T00:57:55;96286.59;;;19.36;37.52
73671;BME280;61968;48.178;11.566;2022-07-10T01:00:21;96293.00;;;19.45;37.23
73671;BME280;61968;48.178;11.566;2022-07-10T01:02:48;96302.38;;;19.37;37.39
73671;BME280;61968;48.178;11.566;2022-07-10T01:05:16;96302.63;;;19.41;37.23
73671;BME280;61968;48.178;11.566;2022-07-10T01:07:43;96296.22;;;19.42;37.25
73671;BME280;61968;48.178;11.566;2022-07-10T01:10:09;96296.47;;;19.45;37.11
73671;BME280;61968;48.178;11.566;2022-07-10T01:12:36;96286.88;;;19.19;38.17
73671;BME280;61968;48.178;11.566;2022-07-10T01:15:05;96292.28;;;19.09;38.59
73671;BME280;61968;48.178;11.566;2022-07-10T01:17:32;96292.25;;;19.19;38.29
73671;BME280;61968;48.178;11.566;2022-07-10T01:20:04;96289.03;;;19.27;38.11
73671;BME280;61968;48.178;11.566;2022-07-10T01:22:32;96290.91;;;19.26;38.31
73671;BME280;61968;48.178;11.566;2022-07-10T01:24:59;96298.66;;;19.33;37.89
73671;BME280;61968;48.178;11.566;2022-07-10T01:27:25;96277.47;;;19.37;38.02
73671;BME280;61968;48.178;11.566;2022-07-10T01:29:53;96269.41;;;19.37;38.23
73671;BME280;61968;48.178;11.566;2022-07-10T01:32:20;96265.63;;;19.43;38.10
73671;BME280;61968;48.178;11.566;2022-07-10T01:34:46;96258.69;;;19.42;38.14
73671;BME280;61968;48.178;11.566;2022-07-10T01:37:13;96258.69;;;19.42;38.41
73671;BME280;61968;48.178;11.566;2022-07-10T01:39:41;96264.81;;;19.47;37.89
73671;BME280;61968;48.178;11.566;2022-07-10T01:42:07;96256.22;;;19.50;37.73
73671;BME280;61968;48.178;11.566;2022-07-10T01:44:34;96257.06;;;19.51;38.07
73671;BME280;61968;48.178;11.566;2022-07-10T01:47:00;96258.38;;;19.48;37.90
73671;BME280;61968;48.178;11.566;2022-07-10T01:49:27;96249.78;;;19.46;38.00
73671;BME280;61968;48.178;11.566;2022-07-10T01:51:53;96244.44;;;19.46;38.18
73671;BME280;61968;48.178;11.566;2022-07-10T01:54:20;96243.09;;;19.44;38.12
73671;BME280;61968;48.178;11.566;2022-07-10T01:56:48;96235.59;;;19.46;37.93
73671;BME280;61968;48.178;11.566;2022-07-10T01:59:14;96233.16;;;19.44;38.09
73671;BME280;61968;48.178;11.566;2022-07-10T02:01:41;96238.84;;;19.38;38.19
73671;BME280;61968;48.178;11.566;2022-07-10T02:04:07;96244.72;;;19.40;38.16
73671;BME280;61968;48.178;11.566;2022-07-10T02:06:51;96235.88;;;19.39;38.10
73671;BME280;61968;48.178;11.566;2022-07-10T02:09:17;96225.19;;;19.29;38.33
73671;BME280;61968;48.178;11.566;2022-07-10T02:11:44;96229.44;;;19.40;38.07
73671;BME280;61968;48.178;11.566;2022-07-10T02:14:12;96236.69;;;19.40;37.96
73671;BME280;61968;48.178;11.566;2022-07-10T02:16:38;96237.50;;;19.35;38.17
73671;BME280;61968;48.178;11.566;2022-07-10T02:19:05;96238.03;;;19.32;38.41
73671;BME280;61968;48.178;11.566;2022-07-10T02:21:31;96238.09;;;19.27;38.49
73671;BME280;61968;48.178;11.566;2022-07-10T02:23:58;96235.13;;;19.28;38.24
73671;BME280;61968;48.178;11.566;2022-07-10T02:26:25;96230.00;;;19.32;38.61
73671;BME280;61968;48.178;11.566;2022-07-10T02:28:51;96227.38;;;19.22;39.39
73671;BME280;61968;48.178;11.566;2022-07-10T02:31:19;96231.94;;;19.11;39.04
73671;BME280;61968;48.178;11.566;2022-07-10T02:33:45;96223.41;;;19.09;39.08
73671;BME280;61968;48.178;11.566;2022-07-10T02:36:12;96232.53;;;18.98;39.32
73671;BME280;61968;48.178;11.566;2022-07-10T02:38:39;96231.19;;;18.95;39.74
73671;BME280;61968;48.178;11.566;2022-07-10T02:41:05;96241.13;;;18.95;39.47
73671;BME280;61968;48.178;11.566;2022-07-10T02:43:31;96236.03;;;18.88;39.95
73671;BME280;61968;48.178;11.566;2022-07-10T02:45:58;96239.22;;;18.95;39.81
73671;BME280;61968;48.178;11.566;2022-07-10T02:48:26;96242.72;;;19.06;39.17
73671;BME280;61968;48.178;11.566;2022-07-10T02:50:52;96240.81;;;19.07;39.14
73671;BME280;61968;48.178;11.566;2022-07-10T02:53:18;96230.59;;;19.14;39.43
73671;BME280;61968;48.178;11.566;2022-07-10T02:55:45;96240.28;;;19.10;39.04
73671;BME280;61968;48.178;11.566;2022-07-10T02:58:11;96236.81;;;19.09;38.98
73671;BME280;61968;48.178;11.566;2022-07-10T03:00:40;96237.06;;;19.08;38.87
73671;BME280;61968;48.178;11.566;2022-07-10T03:03:07;96243.75;;;19.15;39.07
73671;BME280;61968;48.178;11.566;2022-07-10T03:05:34;96242.16;;;19.04;39.32
73671;BME280;61968;48.178;11.566;2022-07-10T03:08:01;96236.31;;;18.87;39.65
73671;BME280;61968;48.178;11.566;2022-07-10T03:10:27;96248.34;;;18.74;39.91
73671;BME280;61968;48.178;11.566;2022-07-10T03:12:54;96234.41;;;18.72;40.25
73671;BME280;61968;48.178;11.566;2022-07-10T03:15:20;96234.44;;;18.56;40.15
73671;BME280;61968;48.178;11.566;2022-07-10T03:17:47;96230.41;;;18.59;40.35
73671;BME280;61968;48.178;11.566;2022-07-10T03:20:13;96229.88;;;18.72;40.03
73671;BME280;61968;48.178;11.566;2022-07-10T03:22:41;96229.84;;;18.77;39.67
73671;BME280;61968;48.178;11.566;2022-07-10T03:25:09;96231.19;;;18.75;39.80
73671;BME280;61968;48.178;11.566;2022-07-10T03:27:35;96231.50;;;18.63;40.05
73671;BME280;61968;48.178;11.566;2022-07-10T03:30:03;96233.06;;;18.74;39.69
73671;BME280;61968;48.178;11.566;2022-07-10T03:32:30;96241.41;;;18.83;39.83
73671;BME280;61968;48.178;11.566;2022-07-10T03:34:56;96237.66;;;18.53;40.34
73671;BME280;61968;48.178;11.566;2022-07-10T03:37:23;96234.44;;;18.67;39.61
73671;BME280;61968;48.178;11.566;2022-07-10T03:39:51;96244.88;;;18.73;40.10
73671;BME280;61968;48.178;11.566;2022-07-10T03:42:17;96234.97;;;18.74;39.72
73671;BME280;61968;48.178;11.566;2022-07-10T03:44:45;96237.66;;;18.64;40.07
73671;BME280;61968;48.178;11.566;2022-07-10T03:47:11;96243.00;;;18.74;39.92
73671;BME280;61968;48.178;11.566;2022-07-10T03:49:38;96245.16;;;18.82;39.66
73671;BME280;61968;48.178;11.566;2022-07-10T03:52:05;96242.47;;;18.77;39.56
73671;BME280;61968;48.178;11.566;2022-07-10T03:54:32;96235.53;;;18.61;40.29
73671;BME280;61968;48.178;11.566;2022-07-10T03:56:59;96235.78;;;18.69;40.11
73671;BME280;61968;48.178;11.566;2022-07-10T03:59:43;96237.38;;;18.75;40.01
73671;BME280;61968;48.178;11.566;2022-07-10T04:02:10;96233.88;;;18.80;39.45
73671;BME280;61968;48.178;11.566;2022-07-10T04:04:37;96235.78;;;18.64;40.19
73671;BME280;61968;48.178;11.566;2022-07-10T04:07:03;96238.47;;;18.64;40.14
73671;BME280;61968;48.178;11.566;2022-07-10T04:09:31;96241.94;;;18.49;40.21
73671;BME280;61968;48.178;11.566;2022-07-10T04:11:57;96237.66;;;18.23;40.70
73671;BME280;61968;48.178;11.566;2022-07-10T04:14:25;96236.06;;;18.27;40.92
73671;BME280;61968;48.178;11.566;2022-07-10T04:16:51;96237.69;;;18.18;40.81
73671;BME280;61968;48.178;11.566;2022-07-10T04:19:18;96237.41;;;18.40;40.68
73671;BME280;61968;48.178;11.566;2022-07-10T04:21:46;96223.75;;;18.46;40.52
73671;BME280;61968;48.178;11.566;2022-07-10T04:24:13;96232.56;;;18.47;40.39
73671;BME280;61968;48.178;11.566;2022-07-10T04:26:39;96229.09;;;18.41;40.69
73671;BME280;61968;48.178;11.566;2022-07-10T04:29:06;96225.88;;;18.19;41.13
73671;BME280;61968;48.178;11.566;2022-07-10T04:31:33;96228.00;;;18.06;41.33
73671;BME280;61968;48.178;11.566;2022-07-10T04:34:00;96229.31;;;17.88;41.50
73671;BME280;61968;48.178;11.566;2022-07-10T04:36:27;96223.91;;;17.68;41.99
73671;BME280;61968;48.178;11.566;2022-07-10T04:38:55;96227.94;;;17.76;41.91
73671;BME280;61968;48.178;11.566;2022-07-10T04:41:22;96239.22;;;17.88;41.93
73671;BME280;61968;48.178;11.566;2022-07-10T04:43:48;96224.25;;;18.07;41.20
73671;BME280;61968;48.178;11.566;2022-07-10T04:46:15;96231.97;;;17.99;41.61
73671;BME280;61968;48.178;11.566;2022-07-10T04:48:42;96233.91;;;18.13;41.09
73671;BME280;61968;48.178;11.566;2022-07-10T04:51:09;96239.00;;;18.41;40.35
73671;BME280;61968;48.178;11.566;2022-07-10T04:53:35;96240.34;;;18.43;40.39
73671;BME280;61968;48.178;11.566;2022-07-10T04:56:02;96244.63;;;18.44;40.43
73671;BME280;61968;48.178;11.566;2022-07-10T04:58:28;96242.47;;;18.26;40.63
73671;BME280;61968;48.178;11.566;2022-07-10T05:00:55;96251.59;;;18.30;40.77
73671;BME280;61968;48.178;11.566;2022-07-10T05:03:21;96248.03;;;17.88;41.70
73671;BME280;61968;48.178;11.566;2022-07-10T05:05:49;96251.53;;;17.26;42.89
73671;BME280;61968;48.178;11.566;2022-07-10T05:08:16;96257.91;;;17.15;42.90
73671;BME280;61968;48.178;11.566;2022-07-10T05:10:42;96260.16;;;16.26;45.03
73671;BME280;61968;48.178;11.566;2022-07-10T05:13:10;96259.78;;;16.45;44.72
73671;BME280;61968;48.178;11.566;2022-07-10T05:15:36;96260.72;;;16.61;44.48
73671;BME280;61968;48.178;11.566;2022-07-10T05:18:03;96261.75;;;16.92;43.74
73671;BME280;61968;48.178;11.566;2022-07-10T05:20:29;96257.78;;;17.47;42.53
73671;BME280;61968;48.178;11.566;2022-07-10T05:22:57;96266.19;;;17.23;42.49
73671;BME280;61968;48.178;11.566;2022-07-10T05:25:23;96269.31;;;17.00;43.10
73671;BME280;61968;48.178;11.566;2022-07-10T05:27:51;96272.28;;;16.07;45.14
73671;BME280;61968;48.178;11.566;2022-07-10T05:30:18;96271.41;;;16.61;43.92
73671;BME280;61968;48.178;11.566;2022-07-10T05:32:45;96269.94;;;16.43;44.17
73671;BME280;61968;48.178;11.566;2022-07-10T05:35:11;96265.22;;;16.55;44.15
73671;BME280;61968;48.178;11.566;2022-07-10T05:37:38;96271.13;;;16.57;44.29
73671;BME280;61968;48.178;11.566;2022-07-10T05:40:11;96277.72;;;16.49;44.30
73671;BME280;61968;48.178;11.566;2022-07-10T05:42:38;96275.44;;;16.63;43.96
73671;BME280;61968;48.178;11.566;2022-07-10T05:45:05;96270.75;;;16.81;43.13
73671;BME280;61968;48.178;11.566;2022-07-10T05:47:32;96264.47;;;16.97;43.02
73671;BME280;61968;48.178;11.566;2022-07-10T05:49:59;96271.84;;;16.80;43.03
73671;BME280;61968;48.178;11.566;2022-07-10T05:52:25;96265.97;;;17.25;42.17
73671;BME280;61968;48.178;11.566;2022-07-10T05:54:52;96268.91;;;17.29;41.84
73671;BME280;61968;48.178;11.566;2022-07-10T05:57:20;96261.03;;;17.54;41.18
73671;BME280;61968;48.178;11.566;2022-07-10T05:59:50;96262.44;;;17.77;40.82
73671;BME280;61968;48.178;11.566;2022-07-10T06:02:21;96262.22;;;17.94;40.39
73671;BME280;61968;48.178;11.566;2022-07-10T06:04:47;96266.44;;;17.75;40.28
73671;BME280;61968;48.178;11.566;2022-07-10T06:07:14;96266.13;;;17.61;40.73
73671;BME280;61968;48.178;11.566;2022-07-10T06:09:41;96270.16;;;17.63;41.05
73671;BME280;61968;48.178;11.566;2022-07-10T06:12:08;96264.06;;;17.78;40.47
73671;BME280;61968;48.178;11.566;2022-07-10T06:14:36;96266.72;;;17.15;42.09
73671;BME280;61968;48.178;11.566;2022-07-10T06:17:03;96272.16;;;17.41;41.39
73671;BME280;61968;48.178;11.566;2022-07-10T06:19:30;96270.38;;;17.57;40.87
73671;BME280;61968;48.178;11.566;2022-07-10T06:21:56;96272.81;;;17.58;40.80
73671;BME280;61968;48.178;11.566;2022-07-10T06:24:45;96275.72;;;17.57;40.49
73671;BME280;61968;48.178;11.566;2022-07-10T06:27:12;96273.41;;;17.23;41.58
73671;BME280;61968;48.178;11.566;2022-07-10T06:29:39;96279.97;;;17.42;41.34
73671;BME280;61968;48.178;11.566;2022-07-10T06:32:07;96276.53;;;17.52;40.96
73671;BME280;61968;48.178;11.566;2022-07-10T06:34:33;96264.28;;;17.72;40.46
73671;BME280;61968;48.178;11.566;2022-07-10T06:37:00;96276.59;;;17.67;40.42
73671;BME280;61968;48.178;11.566;2022-07-10T06:39:28;96268.50;;;17.05;42.13
73671;BME280;61968;48.178;11.566;2022-07-10T06:41:59;96274.38;;;17.02;42.07
73671;BME280;61968;48.178;11.566;2022-07-10T06:44:25;96277.88;;;17.07;42.11
73671;BME280;61968;48.178;11.566;2022-07-10T06:46:53;96281.94;;;17.15;42.02
73671;BME280;61968;48.178;11.566;2022-07-10T06:49:33;96280.59;;;17.17;41.74
73671;BME280;61968;48.178;11.566;2022-07-10T06:52:00;96279.28;;;17.20;41.63
73671;BME280;61968;48.178;11.566;2022-07-10T06:54:26;96276.31;;;17.16;41.99
73671;BME280;61968;48.178;11.566;2022-07-10T06:56:53;96272.13;;;17.31;41.21
73671;BME280;61968;48.178;11.566;2022-07-10T06:59:19;96274.56;;;17.37;40.93
73671;BME280;61968;48.178;11.566;2022-07-10T07:01:46;96273.13;;;17.19;41.28
73671;BME280;61968;48.178;11.566;2022-07-10T07:04:14;96273.75;;;16.89;41.80
73671;BME280;61968;48.178;11.566;2022-07-10T07:06:40;96275.34;;;16.85;41.89
73671;BME280;61968;48.178;11.566;2022-07-10T07:09:07;96274.56;;;16.90;41.96
73671;BME280;61968;48.178;11.566;2022-07-10T07:11:33;96271.41;;;16.98;41.88
73671;BME280;61968;48.178;11.566;2022-07-10T07:14:00;96283.59;;;17.21;41.13
73671;BME280;61968;48.178;11.566;2022-07-10T07:16:26;96282.59;;;17.37;41.08
73671;BME280;61968;48.178;11.566;2022-07-10T07:19:03;96286.47;;;17.14;41.25
73671;BME280;61968;48.178;11.566;2022-07-10T07:21:32;96293.34;;;17.42;41.21
73671;BME280;61968;48.178;11.566;2022-07-10T07:24:28;96297.03;;;17.41;41.08
73671;BME280;61968;48.178;11.566;2022-07-10T07:26:54;96294.13;;;17.43;40.68
73671;BME280;61968;48.178;11.566;2022-07-10T07:29:20;96300.47;;;16.89;42.04
73671;BME280;61968;48.178;11.566;2022-07-10T07:31:47;96303.81;;;16.69;42.81
73671;BME280;61968;48.178;11.566;2022-07-10T07:34:13;96302.38;;;16.94;41.86
73671;BME280;61968;48.178;11.566;2022-07-10T07:36:41;96303.09;;;16.84;42.16
73671;BME280;61968;48.178;11.566;2022-07-10T07:39:08;96305.47;;;17.18;41.18
73671;BME280;61968;48.178;11.566;2022-07-10T07:41:34;96295.31;;;17.20;41.48
73671;BME280;61968;48.178;11.566;2022-07-10T07:44:00;96306.13;;;16.61;41.21
73671;BME280;61968;48.178;11.566;2022-07-10T07:46:27;96300.16;;;16.21;43.23
73671;BME280;61968;48.178;11.566;2022-07-10T07:48:53;96295.69;;;16.59;43.99
73671;BME280;61968;48.178;11.566;2022-07-10T07:51:20;96302.44;;;17.04;42.41
73671;BME280;61968;48.178;11.566;2022-07-10T07:53:47;96308.53;;;16.03;42.99
73671;BME280;61968;48.178;11.566;2022-07-10T07:56:14;96300.25;;;16.64;41.84
73671;BME280;61968;48.178;11.566;2022-07-10T07:58:41;96303.94;;;16.90;42.27
73671;BME280;61968;48.178;11.566;2022-07-10T08:01:08;96308.81;;;16.34;42.65
73671;BME280;61968;48.178;11.566;2022-07-10T08:03:34;96308.56;;;16.99;41.36
73671;BME280;61968;48.178;11.566;2022-07-10T08:06:01;96304.59;;;17.07;41.05
73671;BME280;61968;48.178;11.566;2022-07-10T08:08:27;96303.66;;;17.29;40.32
73671;BME280;61968;48.178;11.566;2022-07-10T08:10:55;96304.47;;;17.34;40.48
73671;BME280;61968;48.178;11.566;2022-07-10T08:13:22;96299.09;;;17.29;39.70
73671;BME280;61968;48.178;11.566;2022-07-10T08:15:48;96303.06;;;17.69;39.73
73671;BME280;61968;48.178;11.566;2022-07-10T08:18:14;96305.66;;;17.49;39.16
73671;BME280;61968;48.178;11.566;2022-07-10T08:20:41;96296.44;;;17.82;38.83
73671;BME280;61968;48.178;11.566;2022-07-10T08:23:07;96295.88;;;17.80;37.85
73671;BME280;61968;48.178;11.566;2022-07-10T08:25:34;96290.75;;;17.68;38.28
73671;BME280;61968;48.178;11.566;2022-07-10T08:28:02;96304.22;;;17.99;38.28
73671;BME280;61968;48.178;11.566;2022-07-10T08:30:31;96305.66;;;17.06;37.66
73671;BME280;61968;48.178;11.566;2022-07-10T08:32:57;96294.28;;;17.26;38.84
73671;BME280;61968;48.178;11.566;2022-07-10T08:35:24;96295.72;;;17.44;37.01
73671;BME280;61968;48.178;11.566;2022-07-10T08:37:50;96294.06;;;17.38;38.24
73671;BME280;61968;48.178;11.566;2022-07-10T08:40:17;96289.09;;;17.57;37.23
73671;BME280;61968;48.178;11.566;2022-07-10T08:42:47;96295.84;;;17.70;37.18
73671;BME280;61968;48.178;11.566;2022-07-10T08:45:15;96290.22;;;17.61;37.82
73671;BME280;61968;48.178;11.566;2022-07-10T08:47:41;96291.34;;;17.85;37.11
73671;BME280;61968;48.178;11.566;2022-07-10T08:50:16;96291.25;;;17.55;37.47
73671;BME280;61968;48.178;11.566;2022-07-10T08:52:51;96292.94;;;17.23;38.21
73671;BME280;61968;48.178;11.566;2022-07-10T08:55:23;96301.19;;;17.17;38.85
73671;BME280;61968;48.178;11.566;2022-07-10T08:57:50;96311.19;;;17.37;37.27
73671;BME280;61968;48.178;11.566;2022-07-10T09:00:18;96302.16;;;17.43;37.85
73671;BME280;61968;48.178;11.566;2022-07-10T09:02:45;96292.66;;;17.73;37.76
73671;BME280;61968;48.178;11.566;2022-07-10T09:05:11;96299.13;;;17.92;36.82
73671;BME280;61968;48.178;11.566;2022-07-10T09:07:38;96288.16;;;17.88;36.46
73671;BME280;61968;48.178;11.566;2022-07-10T09:10:09;96300.31;;;17.06;37.11
73671;BME280;61968;48.178;11.566;2022-07-10T09:12:49;96303.56;;;17.13;37.23
73671;BME280;61968;48.178;11.566;2022-07-10T09:15:20;96296.28;;;17.46;36.33
73671;BME280;61968;48.178;11.566;2022-07-10T09:17:54;96297.22;;;17.82;35.84
73671;BME280;61968;48.178;11.566;2022-07-10T09:20:25;96290.19;;;17.66;36.17
73671;BME280;61968;48.178;11.566;2022-07-10T09:22:52;96278.53;;;17.92;34.82
73671;BME280;61968;48.178;11.566;2022-07-10T09:25:18;96279.63;;;18.02;35.44
73671;BME280;61968;48.178;11.566;2022-07-10T09:27:54;96282.50;;;17.80;35.06
73671;BME280;61968;48.178;11.566;2022-07-10T09:30:35;96284.47;;;17.37;34.87
73671;BME280;61968;48.178;11.566;2022-07-10T09:33:16;96297.44;;;17.60;33.97
73671;BME280;61968;48.178;11.566;2022-07-10T09:35:57;96296.00;;;17.00;35.23
73671;BME280;61968;48.178;11.566;2022-07-10T09:38:53;96284.53;;;17.47;35.24
73671;BME280;61968;48.178;11.566;2022-07-10T09:41:21;96291.34;;;17.75;34.43
73671;BME280;61968;48.178;11.566;2022-07-10T09:43:49;96286.34;;;18.09;34.19
73671;BME280;61968;48.178;11.566;2022-07-10T09:46:19;96291.41;;;18.11;33.26
73671;BME280;61968;48.178;11.566;2022-07-10T09:48:46;96286.84;;;18.01;33.66
73671;BME280;61968;48.178;11.566;2022-07-10T09:51:13;96278.53;;;17.98;33.91
73671;BME280;61968;48.178;11.566;2022-07-10T09:53:41;96282.66;;;18.31;33.36
73671;BME280;61968;48.178;11.566;2022-07-10T09:56:09;96281.03;;;18.40;32.44
73671;BME280;61968;48.178;11.566;2022-07-10T09:58:37;96278.88;;;18.32;33.10
73671;BME280;61968;48.178;11.566;2022-07-10T10:01:05;96281.00;;;18.20;32.92
73671;BME280;61968;48.178;11.566;2022-07-10T10:03:35;96272.13;;;17.99;33.11
73671;BME280;61968;48.178;11.566;2022-07-10T10:06:03;96269.66;;;17.77;32.37
73671;BME280;61968;48.178;11.566;2022-07-10T10:08:37;96274.25;;;18.02;33.23
73671;BME280;61968;48.178;11.566;2022-07-10T10:11:13;96276.13;;;17.96;32.78
73671;BME280;61968;48.178;11.566;2022-07-10T10:13:40;96282.59;;;17.37;32.62
73671;BME280;61968;48.178;11.566;2022-07-10T10:16:08;96276.28;;;17.11;32.97
73671;BME280;61968;48.178;11.566;2022-07-10T10:18:37;96287.53;;;17.13;33.19
73671;BME280;61968;48.178;11.566;2022-07-10T10:21:25;96269.09;;;17.12;33.11
73671;BME280;61968;48.178;11.566;2022-07-10T10:23:51;96277.31;;;17.48;33.19
73671;BME280;61968;48.178;11.566;2022-07-10T10:26:18;96276.03;;;17.60;32.65
73671;BME280;61968;48.178;11.566;2022-07-10T10:28:46;96275.75;;;17.62;33.55
73671;BME280;61968;48.178;11.566;2022-07-10T10:31:13;96271.44;;;17.45;32.29
73671;BME280;61968;48.178;11.566;2022-07-10T10:33:45;96272.56;;;17.65;32.86
73671;BME280;61968;48.178;11.566;2022-07-10T10:36:14;96265.16;;;17.87;32.78
73671;BME280;61968;48.178;11.566;2022-07-10T10:39:04;96269.22;;;18.05;31.86
73671;BME280;61968;48.178;11.566;2022-07-10T10:41:40;96261.66;;;17.82;31.54
73671;BME280;61968;48.178;11.566;2022-07-10T10:44:23;96276.94;;;17.91;32.28
73671;BME280;61968;48.178;11.566;2022-07-10T10:46:56;96268.56;;;17.67;32.60
73671;BME280;61968;48.178;11.566;2022-07-10T10:49:54;96264.03;;;17.20;32.91
73671;BME280;61968;48.178;11.566;2022-07-10T10:52:24;96262.50;;;17.30;31.92
73671;BME280;61968;48.178;11.566;2022-07-10T10:55:02;96259.56;;;17.31;31.20
73671;BME280;61968;48.178;11.566;2022-07-10T10:57:43;96250.47;;;16.80;32.41
73671;BME280;61968;48.178;11.566;2022-07-10T11:00:15;96265.16;;;17.25;32.16
73671;BME280;61968;48.178;11.566;2022-07-10T11:02:42;96265.94;;;16.77;32.83
73671;BME280;61968;48.178;11.566;2022-07-10T11:08:14;96249.56;;;17.11;32.06
73671;BME280;61968;48.178;11.566;2022-07-10T11:11:00;96266.63;;;17.05;31.84
73671;BME280;61968;48.178;11.566;2022-07-10T11:13:27;96263.44;;;17.03;32.78
73671;BME280;61968;48.178;11.566;2022-07-10T11:15:55;96263.13;;;17.47;31.94
73671;BME280;61968;48.178;11.566;2022-07-10T11:18:23;96258.69;;;17.20;32.60
73671;BME280;61968;48.178;11.566;2022-07-10T11:20:53;96273.06;;;17.04;31.18
73671;BME280;61968;48.178;11.566;2022-07-10T11:23:50;96250.56;;;16.95;31.47
73671;BME280;61968;48.178;11.566;2022-07-10T11:26:24;96242.38;;;17.17;32.14
73671;BME280;61968;48.178;11.566;2022-07-10T11:28:59;96256.88;;;17.26;30.67
73671;BME280;61968;48.178;11.566;2022-07-10T11:31:27;96251.91;;;17.50;30.46
73671;BME280;61968;48.178;11.566;2022-07-10T11:33:56;96260.97;;;17.44;31.56
73671;BME280;61968;48.178;11.566;2022-07-10T11:36:25;96247.56;;;17.34;32.60
73671;BME280;61968;48.178;11.566;2022-07-10T11:38:58;96260.25;;;17.06;32.30
73671;BME280;61968;48.178;11.566;2022-07-10T11:41:25;96251.78;;;17.30;32.04
73671;BME280;61968;48.178;11.566;2022-07-10T11:43:53;96255.75;;;17.70;32.90
73671;BME280;61968;48.178;11.566;2022-07-10T11:46:22;96250.97;;;17.92;31.58
73671;BME280;61968;48.178;11.566;2022-07-10T11:48:49;96251.53;;;18.04;31.22
73671;BME280;61968;48.178;11.566;2022-07-10T11:51:22;96259.19;;;17.65;31.36
73671;BME280;61968;48.178;11.566;2022-07-10T11:53:54;96248.13;;;17.41;31.24
73671;BME280;61968;48.178;11.566;2022-07-10T11:56:22;96253.81;;;17.55;31.46
73671;BME280;61968;48.178;11.566;2022-07-10T11:59:00;96251.41;;;17.53;31.49
73671;BME280;61968;48.178;11.566;2022-07-10T12:01:27;96246.25;;;17.36;30.75
73671;BME280;61968;48.178;11.566;2022-07-10T12:03:59;96249.56;;;17.64;30.39
73671;BME280;61968;48.178;11.566;2022-07-10T12:06:26;96241.34;;;17.86;32.21
73671;BME280;61968;48.178;11.566;2022-07-10T12:08:53;96243.94;;;17.55;30.56
73671;BME280;61968;48.178;11.566;2022-07-10T12:11:21;96247.19;;;17.78;30.45
73671;BME280;61968;48.178;11.566;2022-07-10T12:13:50;96253.47;;;17.41;30.92
73671;BME280;61968;48.178;11.566;2022-07-10T12:16:17;96243.44;;;17.74;32.20
73671;BME280;61968;48.178;11.566;2022-07-10T12:18:45;96251.47;;;17.74;30.24
73671;BME280;61968;48.178;11.566;2022-07-10T12:21:13;96251.75;;;17.82;30.13
73671;BME280;61968;48.178;11.566;2022-07-10T12:23:42;96238.56;;;17.55;31.67
73671;BME280;61968;48.178;11.566;2022-07-10T12:26:11;96245.34;;;17.88;31.24
73671;BME280;61968;48.178;11.566;2022-07-10T12:28:50;96249.63;;;17.89;30.85
73671;BME280;61968;48.178;11.566;2022-07-10T12:31:20;96251.53;;;18.04;31.28
73671;BME280;61968;48.178;11.566;2022-07-10T12:33:50;96249.63;;;17.89;30.53
73671;BME280;61968;48.178;11.566;2022-07-10T12:36:17;96247.53;;;18.12;29.98
73671;BME280;61968;48.178;11.566;2022-07-10T12:38:53;96248.34;;;18.12;31.01
73671;BME280;61968;48.178;11.566;2022-07-10T12:41:20;96250.16;;;17.81;30.11
73671;BME280;61968;48.178;11.566;2022-07-10T12:43:51;96242.06;;;17.66;30.50
73671;BME280;61968;48.178;11.566;2022-07-10T12:46:19;96252.31;;;17.89;29.58
73671;BME280;61968;48.178;11.566;2022-07-10T12:49:05;96238.66;;;17.96;30.40
73671;BME280;61968;48.178;11.566;2022-07-10T12:51:33;96251.28;;;18.06;29.44
73671;BME280;61968;48.178;11.566;2022-07-10T12:54:00;96243.03;;;18.33;29.70
73671;BME280;61968;48.178;11.566;2022-07-10T12:56:28;96253.47;;;18.34;29.87
73671;BME280;61968;48.178;11.566;2022-07-10T12:58:56;96256.41;;;18.53;29.03
73671;BME280;61968;48.178;11.566;2022-07-10T13:01:23;96269.28;;;18.51;29.90